Saturday, December 16, 2017, 9:25 PM EST
Back to Local

KJST, Johnstown-cambria Co Airport

Location: Johnstown, PA, United States Lat: 40.317
Local Time: 9:25 PM EST ( 2:25 GMT) Lon: -78.833
Time Zone: US/Eastern Elev: 2283 ft

Show me the last for .
Show Decoded

2017-12-16 20:54 METAR KJST 170154Z AUTO 27012G19KT 10SM CLR 02/M04 A3006 RMK AO2 SLP205
                 T00171044 =
2017-12-16 19:54 METAR KJST 170054Z AUTO 27011KT 10SM CLR 01/M04 A3006 RMK AO2 SLP202 T00111044 =
2017-12-16 18:54 METAR KJST 162354Z AUTO 27008KT 10SM CLR 01/M04 A3004 RMK AO2 SLP199 T00111044
                 10017 20000 53026 =
2017-12-16 17:54 METAR KJST 162254Z AUTO 27009KT 10SM CLR 01/M04 A3001 RMK AO2 SLP189 T00111044 =
2017-12-16 16:54 METAR KJST 162154Z AUTO 25011KT 10SM FEW110 01/M04 A2998 RMK AO2 SLP179
                 T00111044 =
2017-12-16 15:54 METAR KJST 162054Z AUTO 26013KT 10SM FEW110 01/M04 A2996 RMK AO2 SLP170
                 T00111044 53004 =
2017-12-16 14:54 METAR KJST 161954Z AUTO 24012G19KT 10SM FEW024 BKN041 OVC110 01/M04 A2995 RMK
                 AO2 SLP170 T00061039 =
2017-12-16 14:51 METAR KJST 161951Z AUTO 24012G19KT 10SM SCT024 BKN041 OVC085 01/M04 A2995 RMK
                 AO2 =
2017-12-16 13:54 METAR KJST 161854Z AUTO 25013G21KT 10SM BKN023 OVC060 00/M04 A2995 RMK AO2
                 SLP169 T00001039 =
2017-12-16 12:54 METAR KJST 161754Z AUTO 24014G27KT 10SM BKN023 BKN028 OVC070 00/M04 A2995 RMK
                 AO2 PK WND 23027/1747 SLP168 60000 T00001044 10000 21044 58003 =
2017-12-16 11:54 METAR KJST 161654Z AUTO 24013G23KT 10SM BKN024 OVC029 M01/M05 A2995 RMK AO2
                 SLP171 T10061050 =
2017-12-16 11:31 METAR KJST 161631Z AUTO 24017G22KT 10SM BKN024 OVC031 M01/M06 A2995 RMK AO2
                 T10061056 =
2017-12-16 10:54 METAR KJST 161554Z AUTO 24014KT 10SM OVC070 M01/M06 A2996 RMK AO2 SLP174
                 T10111061 =
2017-12-16 09:54 METAR KJST 161454Z AUTO 24014KT 10SM FEW044 OVC060 M02/M06 A2995 RMK AO2 SNE22
                 SLP173 P0000 60000 T10171056 50009 =
2017-12-16 09:23 METAR KJST 161423Z AUTO 23013KT 8SM FEW014 SCT020 OVC040 M03/M06 A2996 RMK AO2
                 SNE22 P0000 T10281056 =
2017-12-16 08:54 METAR KJST 161354Z AUTO 24015G21KT 3SM -SN OVC012 M03/M06 A2996 RMK AO2 SNE21B41
                 SLP176 P0000 T10281056 =
2017-12-16 08:06 METAR KJST 161306Z AUTO 24015KT 4SM -SN BR OVC012 M03/M06 A2994 RMK AO2 P0000
                 T10331056 =
2017-12-16 07:54 METAR KJST 161254Z AUTO 24016G21KT 2 1/2SM -SN BR OVC012 M03/M06 A2994 RMK AO2
                 SLP171 P0000 T10331056 =
2017-12-16 07:45 METAR KJST 161245Z AUTO 25013G22KT 2SM -SN BR OVC013 M04/M06 A2994 RMK AO2 P0000
                 T10391061 =
2017-12-16 07:03 METAR KJST 161203Z AUTO 24016G22KT 6SM -SN OVC013 M04/M07 A2993 RMK AO2 P0000
                 T10391067 =
2017-12-16 06:54 METAR KJST 161154Z AUTO 24015G23KT 5SM -SN BR OVC015 M04/M07 A2993 RMK AO2 SNB04
                 SLP166 P0000 60000 T10441067 11044 21056 53006 =
2017-12-16 05:54 METAR KJST 161054Z AUTO 23015KT 10SM OVC022 M04/M09 A2990 RMK AO2 PK WND
                 23027/0958 SLP159 T10441089 =
2017-12-16 05:19 METAR KJST 161019Z AUTO 23016G21KT 10SM BKN025 OVC032 M04/M09 A2990 RMK AO2 PK
                 WND 23027/0958 T10441094 =
2017-12-16 04:54 METAR KJST 160954Z AUTO 24014KT 10SM OVC036 M05/M09 A2990 RMK AO2 SLP160
                 T10501094 =
2017-12-16 04:12 METAR KJST 160912Z AUTO 24015KT 10SM SCT026 BKN055 OVC085 M05/M09 A2990 RMK AO2
                 T10501094 =
2017-12-16 03:54 METAR KJST 160854Z AUTO 24016G20KT 10SM BKN026 OVC035 M05/M09 A2991 RMK AO2
                 SLP161 T10501094 57001 =
2017-12-16 03:50 METAR KJST 160850Z AUTO 25012G21KT 10SM BKN026 OVC035 M05/M09 A2991 RMK AO2 =
2017-12-16 02:54 METAR KJST 160754Z AUTO 25016G21KT 10SM SCT025 BKN030 OVC046 M05/M09 A2991 RMK
                 AO2 SLP162 T10501094 =
2017-12-16 02:20 METAR KJST 160720Z AUTO 26013G20KT 10SM BKN025 OVC046 M05/M09 A2990 RMK AO2
                 T10501094 =
2017-12-16 01:54 METAR KJST 160654Z AUTO 25010G20KT 10SM SCT034 OVC043 M06/M10 A2988 RMK AO2
                 SLP154 T10561100 =
2017-12-16 00:54 METAR KJST 160554Z AUTO 27013G25KT 10SM OVC042 M06/M10 A2988 RMK AO2 PK WND
                 28036/0514 UPE31 SLP153 P0000 60000 T10561100 11056 21061 51010 =
2017-12-16 00:25 METAR KJST 160525Z AUTO 27014G29KT 6SM UP FEW022 OVC038 M06/M11 A2988 RMK AO2 PK
                 WND 28036/0514 P0000 T10561106 =
2017-12-15 23:54 METAR KJST 160454Z AUTO 26017G28KT 6SM UP BKN024 OVC031 M06/M09 A2988 RMK AO2 PK
                 WND 26030/0431 UPB0359E03B33SNB03E21 SLP153 P0000 T10561094 410561106 =
2017-12-15 22:54 METAR KJST 160354Z AUTO 27015G23KT 6SM HZ OVC016 M06/M08 A2986 RMK AO2 PK WND
                 29026/0327 SNE0255B29E48 SLP146 P0000 T10561083 =
2017-12-15 22:01 METAR KJST 160301Z AUTO 28014G21KT 5SM BR SCT011 BKN017 OVC046 M06/M08 A2985 RMK
                 AO2 SNE0255 P0000 T10611083 =
2017-12-15 21:54 METAR KJST 160254Z AUTO 28012G21KT 5SM -SN BR BKN011 BKN019 OVC046 M06/M08 A2985
                 RMK AO2 PK WND 28029/0225 SNE0155B30 SLP143 P0000 60000 T10611078 53013 =
2017-12-15 21:48 METAR KJST 160248Z AUTO 28013G21KT 2SM -SN BR BKN011 BKN019 OVC028 M06/M08 A2985
                 RMK AO2 PK WND 28029/0225 SNE0155B30 P0000 =
2017-12-15 21:43 METAR KJST 160243Z AUTO 28011G26KT 1SM -SN BR SCT009 BKN015 OVC029 M06/M08 A2985
                 RMK AO2 PK WND 28029/0225 SNE0155B30 P0000 T10611078 =
2017-12-15 21:34 METAR KJST 160234Z AUTO 27017G29KT 1 1/2SM -SN FEW013 BKN020 OVC030 M06/M09
                 A2984 RMK AO2 PK WND 28029/0225 VIS 1/2V5 SNE0155B30 P0000 T10561089 =

Support USWX by starting your Amazon purchase here.